Terminal Aerodrome Forecast
Issued by NWS

Home | Current Version | Previous Version | Graphics & Text | Print | Product List | Glossary On
Versions: 1 2 3 4 5 6 7 8 9 10 11 12 13
000
FTUS43 KTOP 062322
TAFMHK
TAF
KMHK 062322Z 0700/0724 VRB02KT P6SM OVC150
     FM071300 02007KT P6SM OVC040
      TEMPO 0715/0719 6SM -SN OVC025=

USA.gov is the U.S. government's official web portal to all federal, state and local government web resources and services.